sensor_id;sensor_type;location;lat;lon;timestamp;temperature;humidity
71514;DHT22;59335;46.652;21.272;2023-09-19T00:00:28;27.13;46.61
71514;DHT22;59335;46.652;21.272;2023-09-19T00:03:31;27.10;46.60
71514;DHT22;59335;46.652;21.272;2023-09-19T00:06:33;27.12;46.56
71514;DHT22;59335;46.652;21.272;2023-09-19T00:09:36;27.13;46.54
71514;DHT22;59335;46.652;21.272;2023-09-19T00:12:43;27.10;46.54
71514;DHT22;59335;46.652;21.272;2023-09-19T00:15:47;27.12;46.51
71514;DHT22;59335;46.652;21.272;2023-09-19T00:18:52;27.14;46.52
71514;DHT22;59335;46.652;21.272;2023-09-19T00:21:55;27.12;46.52
71514;DHT22;59335;46.652;21.272;2023-09-19T00:24:58;27.12;46.49
71514;DHT22;59335;46.652;21.272;2023-09-19T00:28:01;27.12;46.54
71514;DHT22;59335;46.652;21.272;2023-09-19T00:31:04;27.12;46.51
71514;DHT22;59335;46.652;21.272;2023-09-19T00:34:07;27.10;46.53
71514;DHT22;59335;46.652;21.272;2023-09-19T00:37:12;27.10;46.54
71514;DHT22;59335;46.652;21.272;2023-09-19T00:40:15;27.09;46.57
71514;DHT22;59335;46.652;21.272;2023-09-19T00:43:20;27.07;46.55
71514;DHT22;59335;46.652;21.272;2023-09-19T00:46:23;27.09;46.58
71514;DHT22;59335;46.652;21.272;2023-09-19T00:49:28;27.10;46.58
71514;DHT22;59335;46.652;21.272;2023-09-19T00:52:35;27.12;46.51
71514;DHT22;59335;46.652;21.272;2023-09-19T00:55:41;27.10;46.58
71514;DHT22;59335;46.652;21.272;2023-09-19T00:58:45;27.10;46.57
71514;DHT22;59335;46.652;21.272;2023-09-19T01:01:49;27.12;46.55
71514;DHT22;59335;46.652;21.272;2023-09-19T01:04:55;27.10;46.52
71514;DHT22;59335;46.652;21.272;2023-09-19T01:07:59;27.07;46.50
71514;DHT22;59335;46.652;21.272;2023-09-19T01:14:44;27.09;46.55
71514;DHT22;59335;46.652;21.272;2023-09-19T01:17:59;27.09;46.55
71514;DHT22;59335;46.652;21.272;2023-09-19T01:21:46;27.07;46.57
71514;DHT22;59335;46.652;21.272;2023-09-19T01:25:13;27.07;46.55
71514;DHT22;59335;46.652;21.272;2023-09-19T01:31:59;27.09;46.53
71514;DHT22;59335;46.652;21.272;2023-09-19T01:35:05;27.09;46.53
71514;DHT22;59335;46.652;21.272;2023-09-19T01:38:08;27.06;46.56
71514;DHT22;59335;46.652;21.272;2023-09-19T01:41:17;27.07;46.52
71514;DHT22;59335;46.652;21.272;2023-09-19T01:44:35;27.06;46.57
71514;DHT22;59335;46.652;21.272;2023-09-19T01:47:51;27.07;46.50
71514;DHT22;59335;46.652;21.272;2023-09-19T01:51:00;27.07;46.53
71514;DHT22;59335;46.652;21.272;2023-09-19T01:54:09;27.07;46.49
71514;DHT22;59335;46.652;21.272;2023-09-19T01:57:29;27.07;46.53
71514;DHT22;59335;46.652;21.272;2023-09-19T02:00:37;27.07;46.48
71514;DHT22;59335;46.652;21.272;2023-09-19T02:03:43;27.09;46.48
71514;DHT22;59335;46.652;21.272;2023-09-19T02:06:47;27.06;46.49
71514;DHT22;59335;46.652;21.272;2023-09-19T02:09:50;27.07;46.51
71514;DHT22;59335;46.652;21.272;2023-09-19T02:12:53;27.09;46.48
71514;DHT22;59335;46.652;21.272;2023-09-19T02:15:56;27.07;46.53
71514;DHT22;59335;46.652;21.272;2023-09-19T02:18:58;27.07;46.56
71514;DHT22;59335;46.652;21.272;2023-09-19T02:22:02;27.06;46.51
71514;DHT22;59335;46.652;21.272;2023-09-19T02:25:10;27.07;46.53
71514;DHT22;59335;46.652;21.272;2023-09-19T02:28:13;27.07;46.50
71514;DHT22;59335;46.652;21.272;2023-09-19T02:31:16;27.07;46.44
71514;DHT22;59335;46.652;21.272;2023-09-19T02:34:20;27.09;46.53
71514;DHT22;59335;46.652;21.272;2023-09-19T02:37:22;27.07;46.52
71514;DHT22;59335;46.652;21.272;2023-09-19T02:40:26;27.06;46.48
71514;DHT22;59335;46.652;21.272;2023-09-19T02:43:30;27.07;46.45
71514;DHT22;59335;46.652;21.272;2023-09-19T02:46:33;27.06;46.49
71514;DHT22;59335;46.652;21.272;2023-09-19T02:49:36;27.06;46.53
71514;DHT22;59335;46.652;21.272;2023-09-19T02:52:42;27.07;46.56
71514;DHT22;59335;46.652;21.272;2023-09-19T02:55:47;27.06;46.50
71514;DHT22;59335;46.652;21.272;2023-09-19T02:58:50;27.06;46.57
71514;DHT22;59335;46.652;21.272;2023-09-19T03:01:53;27.05;46.56
71514;DHT22;59335;46.652;21.272;2023-09-19T03:04:57;27.03;46.53
71514;DHT22;59335;46.652;21.272;2023-09-19T03:08:03;27.06;46.49
71514;DHT22;59335;46.652;21.272;2023-09-19T03:11:07;27.06;46.51
71514;DHT22;59335;46.652;21.272;2023-09-19T03:14:15;27.03;46.58
71514;DHT22;59335;46.652;21.272;2023-09-19T03:17:19;27.07;46.54
71514;DHT22;59335;46.652;21.272;2023-09-19T03:20:22;27.03;46.52
71514;DHT22;59335;46.652;21.272;2023-09-19T03:23:26;27.06;46.52
71514;DHT22;59335;46.652;21.272;2023-09-19T03:26:29;27.07;46.55
71514;DHT22;59335;46.652;21.272;2023-09-19T03:29:32;27.06;46.51
71514;DHT22;59335;46.652;21.272;2023-09-19T03:32:43;27.05;46.52
71514;DHT22;59335;46.652;21.272;2023-09-19T03:35:52;27.02;46.55
71514;DHT22;59335;46.652;21.272;2023-09-19T03:38:55;27.06;46.50
71514;DHT22;59335;46.652;21.272;2023-09-19T03:41:57;27.03;46.57
71514;DHT22;59335;46.652;21.272;2023-09-19T03:45:00;27.05;46.56
71514;DHT22;59335;46.652;21.272;2023-09-19T03:48:11;27.03;46.51
71514;DHT22;59335;46.652;21.272;2023-09-19T03:51:15;27.03;46.57
71514;DHT22;59335;46.652;21.272;2023-09-19T03:54:18;27.06;46.53
71514;DHT22;59335;46.652;21.272;2023-09-19T03:57:21;27.05;46.56
71514;DHT22;59335;46.652;21.272;2023-09-19T04:00:24;27.05;46.54
71514;DHT22;59335;46.652;21.272;2023-09-19T04:03:29;27.05;46.58
71514;DHT22;59335;46.652;21.272;2023-09-19T04:06:38;27.05;46.59
71514;DHT22;59335;46.652;21.272;2023-09-19T04:09:41;27.05;46.56
71514;DHT22;59335;46.652;21.272;2023-09-19T04:12:51;27.05;46.61
71514;DHT22;59335;46.652;21.272;2023-09-19T04:15:54;27.03;46.62
71514;DHT22;59335;46.652;21.272;2023-09-19T04:18:57;27.06;46.61
71514;DHT22;59335;46.652;21.272;2023-09-19T04:22:00;27.05;46.66
71514;DHT22;59335;46.652;21.272;2023-09-19T04:25:03;27.05;46.59
71514;DHT22;59335;46.652;21.272;2023-09-19T04:28:06;27.03;46.66
71514;DHT22;59335;46.652;21.272;2023-09-19T04:31:09;27.06;46.62
71514;DHT22;59335;46.652;21.272;2023-09-19T04:34:13;27.05;46.62
71514;DHT22;59335;46.652;21.272;2023-09-19T04:37:19;27.05;46.61
71514;DHT22;59335;46.652;21.272;2023-09-19T04:40:22;27.03;46.69
71514;DHT22;59335;46.652;21.272;2023-09-19T04:43:27;27.05;46.62
71514;DHT22;59335;46.652;21.272;2023-09-19T04:46:31;27.06;46.64
71514;DHT22;59335;46.652;21.272;2023-09-19T04:49:35;27.03;46.58
71514;DHT22;59335;46.652;21.272;2023-09-19T04:52:41;27.02;46.64
71514;DHT22;59335;46.652;21.272;2023-09-19T04:55:53;27.05;46.66
71514;DHT22;59335;46.652;21.272;2023-09-19T04:58:59;27.02;46.63
71514;DHT22;59335;46.652;21.272;2023-09-19T05:02:02;27.02;46.69
71514;DHT22;59335;46.652;21.272;2023-09-19T05:05:07;27.03;46.70
71514;DHT22;59335;46.652;21.272;2023-09-19T05:08:11;27.02;46.69
71514;DHT22;59335;46.652;21.272;2023-09-19T05:11:15;27.06;46.74
71514;DHT22;59335;46.652;21.272;2023-09-19T05:14:19;27.02;46.92
71514;DHT22;59335;46.652;21.272;2023-09-19T05:17:23;26.91;45.88
71514;DHT22;59335;46.652;21.272;2023-09-19T05:20:27;26.78;46.08
71514;DHT22;59335;46.652;21.272;2023-09-19T05:23:35;26.72;46.20
71514;DHT22;59335;46.652;21.272;2023-09-19T05:26:40;26.58;46.25
71514;DHT22;59335;46.652;21.272;2023-09-19T05:29:44;26.48;46.42
71514;DHT22;59335;46.652;21.272;2023-09-19T05:32:48;26.58;46.12
71514;DHT22;59335;46.652;21.272;2023-09-19T05:35:52;26.68;46.39
71514;DHT22;59335;46.652;21.272;2023-09-19T05:38:56;26.81;46.38
71514;DHT22;59335;46.652;21.272;2023-09-19T05:42:02;26.81;46.45
71514;DHT22;59335;46.652;21.272;2023-09-19T05:45:09;26.72;47.18
71514;DHT22;59335;46.652;21.272;2023-09-19T05:48:16;26.57;47.11
71514;DHT22;59335;46.652;21.272;2023-09-19T05:51:19;26.45;47.73
71514;DHT22;59335;46.652;21.272;2023-09-19T05:54:25;26.51;47.65
71514;DHT22;59335;46.652;21.272;2023-09-19T05:57:29;26.41;48.04
71514;DHT22;59335;46.652;21.272;2023-09-19T06:00:33;26.31;48.31
71514;DHT22;59335;46.652;21.272;2023-09-19T06:03:40;26.31;48.65
71514;DHT22;59335;46.652;21.272;2023-09-19T06:06:45;26.18;49.09
71514;DHT22;59335;46.652;21.272;2023-09-19T06:09:47;26.20;49.22
71514;DHT22;59335;46.652;21.272;2023-09-19T06:12:50;26.23;49.37
71514;DHT22;59335;46.652;21.272;2023-09-19T06:15:55;26.28;49.36
71514;DHT22;59335;46.652;21.272;2023-09-19T06:18:59;26.24;49.67
71514;DHT22;59335;46.652;21.272;2023-09-19T06:22:05;26.18;50.26
71514;DHT22;59335;46.652;21.272;2023-09-19T06:25:09;26.20;50.30
71514;DHT22;59335;46.652;21.272;2023-09-19T06:28:14;26.21;50.54
71514;DHT22;59335;46.652;21.272;2023-09-19T06:31:17;26.13;50.73
71514;DHT22;59335;46.652;21.272;2023-09-19T06:34:21;26.16;50.51
71514;DHT22;59335;46.652;21.272;2023-09-19T06:37:27;26.17;50.41
71514;DHT22;59335;46.652;21.272;2023-09-19T06:40:30;26.21;50.25
71514;DHT22;59335;46.652;21.272;2023-09-19T06:43:34;26.26;50.22
71514;DHT22;59335;46.652;21.272;2023-09-19T06:46:37;26.20;50.45
71514;DHT22;59335;46.652;21.272;2023-09-19T06:49:45;26.17;50.34
71514;DHT22;59335;46.652;21.272;2023-09-19T06:52:50;26.28;50.39
71514;DHT22;59335;46.652;21.272;2023-09-19T06:55:54;26.27;50.62
71514;DHT22;59335;46.652;21.272;2023-09-19T06:58:57;26.24;50.34
71514;DHT22;59335;46.652;21.272;2023-09-19T07:02:01;26.24;50.95
71514;DHT22;59335;46.652;21.272;2023-09-19T07:05:04;26.24;50.87
71514;DHT22;59335;46.652;21.272;2023-09-19T07:08:08;26.18;50.87
71514;DHT22;59335;46.652;21.272;2023-09-19T07:11:13;26.03;50.96
71514;DHT22;59335;46.652;21.272;2023-09-19T07:14:16;25.93;51.12
71514;DHT22;59335;46.652;21.272;2023-09-19T07:17:20;25.99;50.94
71514;DHT22;59335;46.652;21.272;2023-09-19T07:20:24;25.85;51.18
71514;DHT22;59335;46.652;21.272;2023-09-19T07:23:35;25.86;51.08
71514;DHT22;59335;46.652;21.272;2023-09-19T07:26:38;25.89;51.24
71514;DHT22;59335;46.652;21.272;2023-09-19T07:29:42;25.88;51.15
71514;DHT22;59335;46.652;21.272;2023-09-19T07:32:45;25.90;51.24
71514;DHT22;59335;46.652;21.272;2023-09-19T07:35:47;25.88;51.46
71514;DHT22;59335;46.652;21.272;2023-09-19T07:38:50;25.86;51.81
71514;DHT22;59335;46.652;21.272;2023-09-19T07:41:53;25.86;51.84
71514;DHT22;59335;46.652;21.272;2023-09-19T07:44:56;25.90;51.73
71514;DHT22;59335;46.652;21.272;2023-09-19T07:48:03;25.96;51.70
71514;DHT22;59335;46.652;21.272;2023-09-19T07:51:19;25.96;51.77
71514;DHT22;59335;46.652;21.272;2023-09-19T07:54:22;26.04;51.71
71514;DHT22;59335;46.652;21.272;2023-09-19T07:57:25;26.03;51.86
71514;DHT22;59335;46.652;21.272;2023-09-19T08:00:31;26.09;51.95
71514;DHT22;59335;46.652;21.272;2023-09-19T08:03:37;26.09;51.55
71514;DHT22;59335;46.652;21.272;2023-09-19T08:07:23;26.26;51.10
71514;DHT22;59335;46.652;21.272;2023-09-19T08:10:42;26.17;50.95
71514;DHT22;59335;46.652;21.272;2023-09-19T08:14:23;26.30;50.86
71514;DHT22;59335;46.652;21.272;2023-09-19T08:17:28;26.30;50.66
71514;DHT22;59335;46.652;21.272;2023-09-19T08:20:32;26.33;50.39
71514;DHT22;59335;46.652;21.272;2023-09-19T08:24:16;26.20;50.22
71514;DHT22;59335;46.652;21.272;2023-09-19T08:27:19;26.28;49.82
71514;DHT22;59335;46.652;21.272;2023-09-19T08:30:23;26.24;49.52
71514;DHT22;59335;46.652;21.272;2023-09-19T08:33:27;26.30;49.40
71514;DHT22;59335;46.652;21.272;2023-09-19T08:36:30;26.40;49.28
71514;DHT22;59335;46.652;21.272;2023-09-19T08:39:34;26.45;48.96
71514;DHT22;59335;46.652;21.272;2023-09-19T08:42:54;26.49;48.89
71514;DHT22;59335;46.652;21.272;2023-09-19T08:49:18;26.67;48.74
71514;DHT22;59335;46.652;21.272;2023-09-19T08:52:36;26.81;49.02
71514;DHT22;59335;46.652;21.272;2023-09-19T08:55:46;26.96;49.11
71514;DHT22;59335;46.652;21.272;2023-09-19T08:58:53;27.02;49.04
71514;DHT22;59335;46.652;21.272;2023-09-19T09:02:02;27.07;48.73
71514;DHT22;59335;46.652;21.272;2023-09-19T09:05:10;27.12;48.70
71514;DHT22;59335;46.652;21.272;2023-09-19T09:08:13;27.16;48.57
71514;DHT22;59335;46.652;21.272;2023-09-19T09:11:17;27.20;48.42
71514;DHT22;59335;46.652;21.272;2023-09-19T09:14:20;27.22;48.27
71514;DHT22;59335;46.652;21.272;2023-09-19T09:17:24;27.26;48.62
71514;DHT22;59335;46.652;21.272;2023-09-19T09:20:27;27.23;48.48
71514;DHT22;59335;46.652;21.272;2023-09-19T09:23:30;27.27;48.42
71514;DHT22;59335;46.652;21.272;2023-09-19T09:26:41;27.29;48.45
71514;DHT22;59335;46.652;21.272;2023-09-19T09:29:48;27.27;48.48
71514;DHT22;59335;46.652;21.272;2023-09-19T09:33:08;27.24;48.42
71514;DHT22;59335;46.652;21.272;2023-09-19T09:36:14;27.27;48.18
71514;DHT22;59335;46.652;21.272;2023-09-19T09:39:30;27.29;48.32
71514;DHT22;59335;46.652;21.272;2023-09-19T09:42:57;27.27;48.27
71514;DHT22;59335;46.652;21.272;2023-09-19T09:46:18;27.24;48.30
71514;DHT22;59335;46.652;21.272;2023-09-19T09:49:26;27.26;48.70
71514;DHT22;59335;46.652;21.272;2023-09-19T09:52:45;27.32;48.84
71514;DHT22;59335;46.652;21.272;2023-09-19T09:56:03;27.30;49.01
71514;DHT22;59335;46.652;21.272;2023-09-19T09:59:10;27.32;48.91
71514;DHT22;59335;46.652;21.272;2023-09-19T10:02:28;27.36;49.27
71514;DHT22;59335;46.652;21.272;2023-09-19T10:05:32;27.37;49.20
71514;DHT22;59335;46.652;21.272;2023-09-19T10:09:10;27.32;49.21
71514;DHT22;59335;46.652;21.272;2023-09-19T10:12:19;27.26;50.00
71514;DHT22;59335;46.652;21.272;2023-09-19T10:15:26;27.24;49.96
71514;DHT22;59335;46.652;21.272;2023-09-19T10:18:31;27.12;50.96
71514;DHT22;59335;46.652;21.272;2023-09-19T10:21:36;27.12;51.22
71514;DHT22;59335;46.652;21.272;2023-09-19T10:24:39;27.16;51.47
71514;DHT22;59335;46.652;21.272;2023-09-19T10:28:06;27.19;50.90
71514;DHT22;59335;46.652;21.272;2023-09-19T10:31:19;27.19;51.02
71514;DHT22;59335;46.652;21.272;2023-09-19T10:34:25;27.26;51.40
71514;DHT22;59335;46.652;21.272;2023-09-19T10:37:32;27.26;51.29
71514;DHT22;59335;46.652;21.272;2023-09-19T10:40:37;27.27;51.16
71514;DHT22;59335;46.652;21.272;2023-09-19T10:43:46;27.27;51.60
71514;DHT22;59335;46.652;21.272;2023-09-19T10:46:53;27.27;52.10
71514;DHT22;59335;46.652;21.272;2023-09-19T10:49:56;27.30;52.14
71514;DHT22;59335;46.652;21.272;2023-09-19T10:53:08;27.33;52.59
71514;DHT22;59335;46.652;21.272;2023-09-19T10:56:30;27.36;52.48
71514;DHT22;59335;46.652;21.272;2023-09-19T11:00:08;27.40;52.91
71514;DHT22;59335;46.652;21.272;2023-09-19T11:03:29;27.39;53.18
71514;DHT22;59335;46.652;21.272;2023-09-19T11:06:39;27.40;53.31
71514;DHT22;59335;46.652;21.272;2023-09-19T11:09:44;27.39;53.09
71514;DHT22;59335;46.652;21.272;2023-09-19T11:12:50;27.39;53.68
71514;DHT22;59335;46.652;21.272;2023-09-19T11:19:02;27.37;53.47
71514;DHT22;59335;46.652;21.272;2023-09-19T11:22:05;27.32;54.47
71514;DHT22;59335;46.652;21.272;2023-09-19T11:25:45;27.37;54.37
71514;DHT22;59335;46.652;21.272;2023-09-19T11:29:29;27.30;55.28
71514;DHT22;59335;46.652;21.272;2023-09-19T11:33:37;27.30;55.27
71514;DHT22;59335;46.652;21.272;2023-09-19T11:36:35;27.30;54.94
71514;DHT22;59335;46.652;21.272;2023-09-19T11:39:39;27.30;55.13
71514;DHT22;59335;46.652;21.272;2023-09-19T11:49:08;27.34;54.76
71514;DHT22;59335;46.652;21.272;2023-09-19T11:52:21;27.33;54.66
71514;DHT22;59335;46.652;21.272;2023-09-19T11:55:28;27.34;54.69
71514;DHT22;59335;46.652;21.272;2023-09-19T11:58:37;27.37;55.05
71514;DHT22;59335;46.652;21.272;2023-09-19T12:01:50;27.36;54.82
71514;DHT22;59335;46.652;21.272;2023-09-19T12:04:57;27.33;54.98
71514;DHT22;59335;46.652;21.272;2023-09-19T12:08:05;27.36;54.91
71514;DHT22;59335;46.652;21.272;2023-09-19T12:11:30;27.33;54.53
71514;DHT22;59335;46.652;21.272;2023-09-19T12:14:38;27.33;54.40
71514;DHT22;59335;46.652;21.272;2023-09-19T12:17:44;27.36;54.22
71514;DHT22;59335;46.652;21.272;2023-09-19T12:20:49;27.36;54.01
71514;DHT22;59335;46.652;21.272;2023-09-19T12:24:13;27.36;54.01
71514;DHT22;59335;46.652;21.272;2023-09-19T12:27:22;27.33;54.05
71514;DHT22;59335;46.652;21.272;2023-09-19T12:30:28;27.32;53.65
71514;DHT22;59335;46.652;21.272;2023-09-19T12:33:35;27.32;53.41
71514;DHT22;59335;46.652;21.272;2023-09-19T12:36:39;27.30;53.42
71514;DHT22;59335;46.652;21.272;2023-09-19T12:39:45;27.30;53.30
71514;DHT22;59335;46.652;21.272;2023-09-19T12:42:59;27.33;53.07
71514;DHT22;59335;46.652;21.272;2023-09-19T12:46:02;27.33;53.25
71514;DHT22;59335;46.652;21.272;2023-09-19T12:49:19;27.32;53.07
71514;DHT22;59335;46.652;21.272;2023-09-19T12:52:23;27.33;52.56
71514;DHT22;59335;46.652;21.272;2023-09-19T12:55:29;27.34;52.65
71514;DHT22;59335;46.652;21.272;2023-09-19T12:58:54;27.32;52.86
71514;DHT22;59335;46.652;21.272;2023-09-19T13:02:04;27.34;52.88
71514;DHT22;59335;46.652;21.272;2023-09-19T13:05:16;27.33;52.75
71514;DHT22;59335;46.652;21.272;2023-09-19T13:08:22;27.30;52.35
71514;DHT22;59335;46.652;21.272;2023-09-19T13:11:36;27.33;52.44
71514;DHT22;59335;46.652;21.272;2023-09-19T13:14:41;27.30;52.22
71514;DHT22;59335;46.652;21.272;2023-09-19T13:17:49;27.33;52.17
71514;DHT22;59335;46.652;21.272;2023-09-19T13:21:09;27.30;51.97
71514;DHT22;59335;46.652;21.272;2023-09-19T13:24:22;27.32;51.75
71514;DHT22;59335;46.652;21.272;2023-09-19T13:27:28;27.32;51.93
71514;DHT22;59335;46.652;21.272;2023-09-19T13:30:37;27.30;51.94
71514;DHT22;59335;46.652;21.272;2023-09-19T13:33:47;27.33;51.79
71514;DHT22;59335;46.652;21.272;2023-09-19T13:36:50;27.33;51.48
71514;DHT22;59335;46.652;21.272;2023-09-19T13:39:52;27.36;51.69
71514;DHT22;59335;46.652;21.272;2023-09-19T13:42:56;27.34;51.50
71514;DHT22;59335;46.652;21.272;2023-09-19T13:45:59;27.34;51.37
71514;DHT22;59335;46.652;21.272;2023-09-19T13:49:03;27.36;51.35
71514;DHT22;59335;46.652;21.272;2023-09-19T13:52:06;27.36;51.26
71514;DHT22;59335;46.652;21.272;2023-09-19T13:55:09;27.36;51.26
71514;DHT22;59335;46.652;21.272;2023-09-19T13:58:12;27.34;51.15
71514;DHT22;59335;46.652;21.272;2023-09-19T14:01:15;27.36;51.21
71514;DHT22;59335;46.652;21.272;2023-09-19T14:04:19;27.36;50.76
71514;DHT22;59335;46.652;21.272;2023-09-19T14:07:24;27.37;50.81
71514;DHT22;59335;46.652;21.272;2023-09-19T14:10:28;27.36;50.76
71514;DHT22;59335;46.652;21.272;2023-09-19T14:13:32;27.34;50.59
71514;DHT22;59335;46.652;21.272;2023-09-19T14:16:35;27.34;50.61
71514;DHT22;59335;46.652;21.272;2023-09-19T14:19:41;27.34;50.78
71514;DHT22;59335;46.652;21.272;2023-09-19T14:22:48;27.30;50.74
71514;DHT22;59335;46.652;21.272;2023-09-19T14:25:51;27.30;50.43
71514;DHT22;59335;46.652;21.272;2023-09-19T14:28:56;27.29;50.71
71514;DHT22;59335;46.652;21.272;2023-09-19T14:32:01;27.32;50.66
71514;DHT22;59335;46.652;21.272;2023-09-19T14:35:06;27.30;50.81
71514;DHT22;59335;46.652;21.272;2023-09-19T14:38:09;27.32;50.83
71514;DHT22;59335;46.652;21.272;2023-09-19T14:41:12;27.29;50.62
71514;DHT22;59335;46.652;21.272;2023-09-19T14:44:15;27.27;50.45
71514;DHT22;59335;46.652;21.272;2023-09-19T14:47:22;27.29;50.35
71514;DHT22;59335;46.652;21.272;2023-09-19T14:50:26;27.26;50.20
71514;DHT22;59335;46.652;21.272;2023-09-19T14:53:30;27.26;50.21
71514;DHT22;59335;46.652;21.272;2023-09-19T14:56:33;27.27;50.21
71514;DHT22;59335;46.652;21.272;2023-09-19T14:59:37;27.27;50.08
71514;DHT22;59335;46.652;21.272;2023-09-19T15:02:39;27.27;50.02
71514;DHT22;59335;46.652;21.272;2023-09-19T15:05:49;27.26;49.99
71514;DHT22;59335;46.652;21.272;2023-09-19T15:08:52;27.26;49.96
71514;DHT22;59335;46.652;21.272;2023-09-19T15:11:55;27.27;50.00
71514;DHT22;59335;46.652;21.272;2023-09-19T15:14:58;27.27;50.05
71514;DHT22;59335;46.652;21.272;2023-09-19T15:18:01;27.29;50.11
71514;DHT22;59335;46.652;21.272;2023-09-19T15:21:05;27.30;50.12
71514;DHT22;59335;46.652;21.272;2023-09-19T15:24:08;27.29;50.30
71514;DHT22;59335;46.652;21.272;2023-09-19T15:27:12;27.27;50.37
71514;DHT22;59335;46.652;21.272;2023-09-19T15:30:15;27.26;50.38
71514;DHT22;59335;46.652;21.272;2023-09-19T15:33:18;27.27;50.48
71514;DHT22;59335;46.652;21.272;2023-09-19T15:36:22;27.26;50.54
71514;DHT22;59335;46.652;21.272;2023-09-19T15:39:25;27.29;50.60
71514;DHT22;59335;46.652;21.272;2023-09-19T15:42:29;27.27;50.68
71514;DHT22;59335;46.652;21.272;2023-09-19T15:45:32;27.26;50.75
71514;DHT22;59335;46.652;21.272;2023-09-19T15:48:36;27.24;50.81
71514;DHT22;59335;46.652;21.272;2023-09-19T15:51:44;27.26;50.92
71514;DHT22;59335;46.652;21.272;2023-09-19T15:54:47;27.26;50.95
71514;DHT22;59335;46.652;21.272;2023-09-19T15:57:51;27.23;50.98
71514;DHT22;59335;46.652;21.272;2023-09-19T16:00:55;27.23;51.06
71514;DHT22;59335;46.652;21.272;2023-09-19T16:03:59;27.23;51.03
71514;DHT22;59335;46.652;21.272;2023-09-19T16:07:02;27.20;51.13
71514;DHT22;59335;46.652;21.272;2023-09-19T16:10:07;27.23;51.07
71514;DHT22;59335;46.652;21.272;2023-09-19T16:13:11;27.24;51.06
71514;DHT22;59335;46.652;21.272;2023-09-19T16:16:15;27.22;51.08
71514;DHT22;59335;46.652;21.272;2023-09-19T16:19:19;27.22;51.09
71514;DHT22;59335;46.652;21.272;2023-09-19T16:22:24;27.23;51.09
71514;DHT22;59335;46.652;21.272;2023-09-19T16:25:29;27.22;51.12
71514;DHT22;59335;46.652;21.272;2023-09-19T16:28:32;27.20;51.09
71514;DHT22;59335;46.652;21.272;2023-09-19T16:31:37;27.20;51.01
71514;DHT22;59335;46.652;21.272;2023-09-19T16:34:40;27.22;50.96
71514;DHT22;59335;46.652;21.272;2023-09-19T16:37:44;27.19;51.01
71514;DHT22;59335;46.652;21.272;2023-09-19T16:40:57;27.17;51.02
71514;DHT22;59335;46.652;21.272;2023-09-19T16:44:02;27.16;51.04
71514;DHT22;59335;46.652;21.272;2023-09-19T16:47:12;27.17;51.01
71514;DHT22;59335;46.652;21.272;2023-09-19T16:50:15;27.17;51.01
71514;DHT22;59335;46.652;21.272;2023-09-19T16:53:20;27.19;51.02
71514;DHT22;59335;46.652;21.272;2023-09-19T16:56:30;27.17;50.97
71514;DHT22;59335;46.652;21.272;2023-09-19T16:59:36;27.16;51.01
71514;DHT22;59335;46.652;21.272;2023-09-19T17:02:39;27.14;51.00
71514;DHT22;59335;46.652;21.272;2023-09-19T17:05:43;27.16;50.93
71514;DHT22;59335;46.652;21.272;2023-09-19T17:08:49;27.14;50.88
71514;DHT22;59335;46.652;21.272;2023-09-19T17:11:53;27.14;50.96
71514;DHT22;59335;46.652;21.272;2023-09-19T17:14:57;27.14;50.96
71514;DHT22;59335;46.652;21.272;2023-09-19T17:18:00;27.14;50.95
71514;DHT22;59335;46.652;21.272;2023-09-19T17:21:05;27.13;50.96
71514;DHT22;59335;46.652;21.272;2023-09-19T17:24:12;27.14;50.96
71514;DHT22;59335;46.652;21.272;2023-09-19T17:27:19;27.14;50.90
71514;DHT22;59335;46.652;21.272;2023-09-19T17:30:24;27.13;50.96
71514;DHT22;59335;46.652;21.272;2023-09-19T17:33:31;27.12;50.92
71514;DHT22;59335;46.652;21.272;2023-09-19T17:36:40;27.12;50.92
71514;DHT22;59335;46.652;21.272;2023-09-19T17:39:47;27.12;50.95
71514;DHT22;59335;46.652;21.272;2023-09-19T17:42:53;27.10;50.90
71514;DHT22;59335;46.652;21.272;2023-09-19T17:46:14;27.12;50.90
71514;DHT22;59335;46.652;21.272;2023-09-19T17:49:20;27.12;50.86
71514;DHT22;59335;46.652;21.272;2023-09-19T17:52:29;27.13;50.86
71514;DHT22;59335;46.652;21.272;2023-09-19T17:55:37;27.12;50.88
71514;DHT22;59335;46.652;21.272;2023-09-19T17:58:48;27.10;50.87
71514;DHT22;59335;46.652;21.272;2023-09-19T18:01:59;27.10;50.91
71514;DHT22;59335;46.652;21.272;2023-09-19T18:05:05;27.07;50.86
71514;DHT22;59335;46.652;21.272;2023-09-19T18:08:17;27.10;50.84
71514;DHT22;59335;46.652;21.272;2023-09-19T18:11:29;27.10;50.84
71514;DHT22;59335;46.652;21.272;2023-09-19T18:14:37;27.09;50.85
71514;DHT22;59335;46.652;21.272;2023-09-19T18:17:44;27.10;50.84
71514;DHT22;59335;46.652;21.272;2023-09-19T18:20:50;27.09;50.83
71514;DHT22;59335;46.652;21.272;2023-09-19T18:23:58;27.10;50.81
71514;DHT22;59335;46.652;21.272;2023-09-19T18:27:06;27.07;50.77
71514;DHT22;59335;46.652;21.272;2023-09-19T18:30:14;27.09;50.80
71514;DHT22;59335;46.652;21.272;2023-09-19T18:33:19;27.09;50.78
71514;DHT22;59335;46.652;21.272;2023-09-19T18:36:24;27.06;50.79
71514;DHT22;59335;46.652;21.272;2023-09-19T18:39:28;27.12;50.76
71514;DHT22;59335;46.652;21.272;2023-09-19T18:42:33;27.10;50.73
71514;DHT22;59335;46.652;21.272;2023-09-19T18:45:38;27.07;50.72
71514;DHT22;59335;46.652;21.272;2023-09-19T18:48:44;27.07;50.78
71514;DHT22;59335;46.652;21.272;2023-09-19T18:51:48;27.07;50.75
71514;DHT22;59335;46.652;21.272;2023-09-19T18:54:52;27.06;50.73
71514;DHT22;59335;46.652;21.272;2023-09-19T18:57:56;27.09;50.69
71514;DHT22;59335;46.652;21.272;2023-09-19T19:01:07;27.09;50.68
71514;DHT22;59335;46.652;21.272;2023-09-19T19:04:11;27.07;50.69
71514;DHT22;59335;46.652;21.272;2023-09-19T19:07:17;27.07;50.67
71514;DHT22;59335;46.652;21.272;2023-09-19T19:10:24;27.05;50.68
71514;DHT22;59335;46.652;21.272;2023-09-19T19:13:28;27.07;50.70
71514;DHT22;59335;46.652;21.272;2023-09-19T19:16:35;27.06;50.69
71514;DHT22;59335;46.652;21.272;2023-09-19T19:19:40;27.05;50.68
71514;DHT22;59335;46.652;21.272;2023-09-19T19:22:45;27.03;50.70
71514;DHT22;59335;46.652;21.272;2023-09-19T19:25:48;27.03;50.68
71514;DHT22;59335;46.652;21.272;2023-09-19T19:28:55;27.02;50.67
71514;DHT22;59335;46.652;21.272;2023-09-19T19:32:01;27.03;50.69
71514;DHT22;59335;46.652;21.272;2023-09-19T19:35:06;27.02;50.70
71514;DHT22;59335;46.652;21.272;2023-09-19T19:38:11;27.05;50.62
71514;DHT22;59335;46.652;21.272;2023-09-19T19:41:15;27.03;50.68